Time;durP1;ratioP1;P1;durP2;ratioP2;P2;SDS_P1;SDS_P2;PMS_P1;PMS_P2;Temp;Humidity;BMP_temperature;BMP_pressure;BME280_temperature;BME280_humidity;BME280_pressure;Samples;Min_cycle;Max_cycle;Signal;HPM_P1;HPM_P2
2022/02/07 00:00:25;;;;;;;133.20;57.00;;;;;;;2.40;60.67;95176.94;5038334;28;20049;-77
2022/02/07 00:05:21;;;;;;;138.43;59.45;;;;;;;2.22;61.06;95169.59;5027788;28;20423;-77
2022/02/07 00:07:47;;;;;;;157.73;65.50;;;;;;;2.28;60.60;95163.78;5028728;28;20028;-75
2022/02/07 00:10:12;;;;;;;138.18;60.20;;;;;;;2.28;60.97;95149.72;5028549;28;20030;-76
2022/02/07 00:12:38;;;;;;;133.77;58.20;;;;;;;2.19;61.63;95151.34;5027262;28;20105;-77
2022/02/07 00:15:04;;;;;;;106.75;50.40;;;;;;;2.10;62.26;95145.03;5027194;28;20045;-76
2022/02/07 00:17:29;;;;;;;121.60;50.90;;;;;;;2.15;62.49;95150.78;5029033;28;20033;-76
2022/02/07 00:19:58;;;;;;;88.07;43.60;;;;;;;2.13;63.05;95147.41;5027072;28;20506;-76
2022/02/07 00:22:23;;;;;;;122.38;57.03;;;;;;;2.20;61.71;95145.06;5027456;28;20116;-76
2022/02/07 00:24:49;;;;;;;119.93;55.45;;;;;;;2.14;61.97;95141.16;5026800;28;20025;-77
2022/02/07 00:27:14;;;;;;;131.60;61.15;;;;;;;2.04;62.74;95146.41;5027151;28;20026;-75
2022/02/07 00:29:40;;;;;;;123.60;56.25;;;;;;;1.65;63.49;95130.28;5028581;28;20029;-75
2022/02/07 00:32:05;;;;;;;92.90;46.75;;;;;;;1.76;63.75;95127.59;5027950;28;20038;-76
2022/02/07 00:34:31;;;;;;;96.53;46.90;;;;;;;1.88;63.83;95131.00;5028647;28;20045;-76
2022/02/07 00:36:58;;;;;;;60.47;30.15;;;;;;;1.90;65.23;95129.06;5028082;28;20033;-76
2022/02/07 00:39:31;;;;;;;66.60;32.60;;;;;;;1.97;65.80;95117.00;5026807;28;20025;-75
2022/02/07 00:42:02;;;;;;;19.30;11.00;;;;;;;2.17;66.18;95105.66;5027961;28;20025;-76
2022/02/07 00:44:27;;;;;;;13.90;8.88;;;;;;;2.42;66.25;95100.88;5028202;28;20436;-74
2022/02/07 00:46:57;;;;;;;51.42;28.98;;;;;;;2.64;64.99;95101.63;5026841;28;20026;-77
2022/02/07 00:49:23;;;;;;;69.88;34.95;;;;;;;2.59;63.79;95096.75;5026863;28;20037;-77
2022/02/07 00:51:49;;;;;;;86.28;43.60;;;;;;;2.55;62.40;95090.88;5009965;28;20463;-77
2022/02/07 00:54:15;;;;;;;90.10;42.30;;;;;;;2.49;62.02;95082.63;5027242;28;20589;-75
2022/02/07 00:56:41;;;;;;;87.57;44.15;;;;;;;2.48;62.15;95087.09;5026558;28;20026;-76
2022/02/07 00:59:07;;;;;;;82.97;43.42;;;;;;;2.39;61.91;95087.88;5026082;28;20112;-77
2022/02/07 01:01:33;;;;;;;72.75;38.95;;;;;;;2.41;62.44;95078.00;5026611;28;20179;-76
2022/02/07 01:03:58;;;;;;;80.30;40.83;;;;;;;2.46;62.46;95081.09;5027541;28;20431;-76
2022/02/07 01:06:24;;;;;;;76.28;39.67;;;;;;;2.49;62.11;95064.94;5027860;28;20030;-75
2022/02/07 01:08:53;;;;;;;77.30;41.67;;;;;;;2.43;62.04;95076.94;5027751;28;20036;-76
2022/02/07 01:18:58;;;;;;;65.90;29.00;;;;;;;2.39;64.34;95054.31;5027796;28;20447;-76
2022/02/07 01:46:21;;;;;;;13.95;7.38;;;;;;;2.88;65.51;94995.28;5026031;28;20055;-76
2022/02/07 01:51:33;;;;;;;36.10;16.13;;;;;;;2.98;63.74;95000.59;5025349;28;20039;-76
2022/02/07 01:56:30;;;;;;;18.75;11.85;;;;;;;2.89;64.83;94977.56;5027089;28;20034;-76
2022/02/07 01:58:56;;;;;;;14.68;8.43;;;;;;;2.95;65.11;94974.38;4992919;28;20018;-76
2022/02/07 02:01:23;;;;;;;13.48;8.40;;;;;;;2.98;65.45;94971.44;5025422;28;20033;-76
2022/02/07 02:03:48;;;;;;;16.17;7.95;;;;;;;3.06;65.34;94989.28;5009221;28;20048;-76
2022/02/07 02:06:14;;;;;;;24.58;13.95;;;;;;;3.05;64.71;94971.69;5026173;28;20025;-76
2022/02/07 02:08:39;;;;;;;19.00;11.32;;;;;;;3.04;64.16;94962.09;5008715;28;20042;-77
2022/02/07 02:11:05;;;;;;;11.93;8.35;;;;;;;3.01;65.01;94963.22;5025373;28;20030;-77
2022/02/07 02:16:25;;;;;;;16.35;7.43;;;;;;;3.15;65.26;94961.09;5025385;28;20073;-75
2022/02/07 02:37:56;;;;;;;12.23;7.05;;;;;;;3.41;64.64;94968.41;5026292;28;20029;-77
2022/02/07 02:45:37;;;;;;;13.23;7.25;;;;;;;3.51;64.58;94957.78;5025923;28;20542;-75
2022/02/07 02:48:08;;;;;;;10.00;6.28;;;;;;;3.54;64.95;94941.59;5026085;28;20100;-76
2022/02/07 02:50:35;;;;;;;12.27;7.65;;;;;;;3.50;64.65;94948.97;5024570;28;20025;-75
2022/02/07 02:53:02;;;;;;;12.68;7.35;;;;;;;3.52;65.07;94944.38;5008579;28;20610;-76
2022/02/07 02:55:28;;;;;;;13.10;6.80;;;;;;;3.63;64.40;94939.88;5024649;28;20029;-75
2022/02/07 02:57:54;;;;;;;11.32;7.50;;;;;;;3.71;64.14;94938.16;5025943;28;20026;-76
2022/02/07 03:00:19;;;;;;;10.27;7.10;;;;;;;3.82;64.30;94926.50;5025809;28;20029;-76
2022/02/07 03:02:45;;;;;;;11.10;7.82;;;;;;;3.76;64.10;94931.56;5024422;28;20411;-76
2022/02/07 03:05:10;;;;;;;12.05;7.20;;;;;;;3.76;64.89;94931.56;5008233;28;20036;-76
2022/02/07 03:07:36;;;;;;;11.65;7.47;;;;;;;3.86;64.67;94928.88;5025573;28;20026;-76
2022/02/07 03:10:03;;;;;;;11.57;7.72;;;;;;;3.85;64.57;94929.88;5024691;28;20042;-76
2022/02/07 03:12:31;;;;;;;11.15;7.05;;;;;;;3.92;64.06;94933.59;5024416;28;20034;-76
2022/02/07 03:16:35;;;;;;;10.05;7.20;;;;;;;3.97;63.50;94926.03;5024372;28;20034;-77
2022/02/07 03:17:41;;;;;;;10.27;6.97;;;;;;;4.01;63.88;94931.88;5026646;28;20523;-76
2022/02/07 03:20:07;;;;;;;10.80;7.47;;;;;;;4.04;63.57;94934.22;5029812;28;20500;-77
2022/02/07 03:22:33;;;;;;;9.98;6.85;;;;;;;4.06;64.34;94925.13;5029815;28;20076;-78
2022/02/07 03:24:58;;;;;;;11.00;6.68;;;;;;;4.12;63.65;94917.56;5029840;28;20075;-77
2022/02/07 03:27:23;;;;;;;9.10;6.30;;;;;;;4.19;63.76;94919.44;5028300;28;20376;-79
2022/02/07 03:29:49;;;;;;;12.18;6.90;;;;;;;4.20;63.54;94905.22;5028068;28;20359;-77
2022/02/07 03:32:14;;;;;;;9.18;6.38;;;;;;;4.32;62.92;94913.78;5011464;28;20036;-76
2022/02/07 03:34:40;;;;;;;9.77;5.95;;;;;;;4.47;63.20;94915.06;5027781;28;20029;-76
2022/02/07 03:37:05;;;;;;;9.68;5.88;;;;;;;4.55;62.74;94915.13;5029821;28;20079;-76
2022/02/07 03:39:31;;;;;;;12.68;6.43;;;;;;;4.61;62.35;94911.88;5029023;28;20033;-76
2022/02/07 03:41:57;;;;;;;9.75;7.05;;;;;;;4.64;62.49;94921.38;5029260;28;20036;-76
2022/02/07 03:44:22;;;;;;;10.05;6.45;;;;;;;4.69;62.86;94911.13;5029432;28;20029;-75
2022/02/07 03:46:47;;;;;;;10.85;6.40;;;;;;;4.74;62.30;94908.81;5028905;28;20084;-77
2022/02/07 03:49:13;;;;;;;10.50;6.25;;;;;;;4.81;61.69;94903.72;5027743;28;20388;-78
2022/02/07 03:51:46;;;;;;;8.55;6.07;;;;;;;4.96;61.30;94909.34;5011044;28;20472;-78
2022/02/07 03:54:11;;;;;;;9.20;6.32;;;;;;;4.93;61.85;94902.50;5029284;28;20029;-76
2022/02/07 03:56:37;;;;;;;11.60;6.03;;;;;;;4.93;61.32;94902.50;5027176;28;20029;-77
2022/02/07 03:59:02;;;;;;;9.05;5.72;;;;;;;5.07;61.67;94897.63;5011122;28;20033;-78
2022/02/07 04:01:28;;;;;;;11.30;6.75;;;;;;;5.08;61.83;94907.25;5027636;28;20033;-79
2022/02/07 04:03:54;;;;;;;10.13;6.35;;;;;;;5.10;61.59;94910.59;5028484;28;20090;-76
2022/02/07 04:06:21;;;;;;;11.27;6.15;;;;;;;5.23;60.86;94912.00;5027528;28;20037;-76
2022/02/07 04:08:49;;;;;;;9.80;6.63;;;;;;;5.29;60.46;94904.22;5010910;28;20029;-76
2022/02/07 04:11:23;;;;;;;9.85;6.53;;;;;;;5.30;60.94;94905.06;5011222;28;20191;-78
2022/02/07 04:13:53;;;;;;;9.02;6.55;;;;;;;5.26;60.18;94904.53;5028370;28;20124;-77
2022/02/07 04:16:19;;;;;;;10.65;6.45;;;;;;;5.06;60.70;94902.09;5028655;28;20408;-78
2022/02/07 04:19:13;;;;;;;9.88;6.38;;;;;;;4.95;60.94;94886.38;5028569;28;20075;-77
2022/02/07 04:21:39;;;;;;;12.30;6.97;;;;;;;4.89;61.49;94884.34;5015096;28;20022;-76
2022/02/07 04:24:04;;;;;;;8.30;6.55;;;;;;;4.82;61.19;94870.88;5010379;28;20033;-77
2022/02/07 04:26:30;;;;;;;11.80;7.60;;;;;;;4.75;61.87;94868.00;5028455;28;20404;-76
2022/02/07 04:28:55;;;;;;;11.43;8.27;;;;;;;4.64;62.77;94876.22;5010296;28;20030;-76
2022/02/07 04:31:21;;;;;;;12.40;7.95;;;;;;;4.62;62.38;94875.53;5010462;28;20025;-76
2022/02/07 04:33:46;;;;;;;12.80;7.90;;;;;;;4.66;61.21;94882.22;5026833;28;20404;-75
2022/02/07 04:36:11;;;;;;;13.57;7.32;;;;;;;4.62;61.75;94872.88;5028805;28;20033;-77
2022/02/07 04:38:37;;;;;;;11.07;7.35;;;;;;;4.52;62.40;94873.78;5026835;28;20053;-77
2022/02/07 04:41:06;;;;;;;12.80;7.85;;;;;;;4.48;62.32;94869.78;5027970;28;20091;-77
2022/02/07 04:43:31;;;;;;;13.70;8.13;;;;;;;4.50;61.74;94861.66;5028212;28;20030;-77
2022/02/07 04:54:11;;;;;;;14.45;8.48;;;;;;;4.27;62.91;94856.81;5026414;28;20049;-76
2022/02/07 04:59:25;;;;;;;14.43;8.75;;;;;;;4.33;62.98;94846.44;5028057;28;20511;-75
2022/02/07 05:01:54;;;;;;;14.60;8.55;;;;;;;4.26;62.73;94829.44;5026511;28;20508;-76
2022/02/07 05:04:34;;;;;;;11.73;7.68;;;;;;;4.19;63.44;94828.38;5027742;28;20110;-76
2022/02/07 05:15:12;;;;;;;12.68;7.68;;;;;;;4.21;63.00;94850.28;5027700;28;20124;-77
2022/02/07 05:17:39;;;;;;;14.05;7.75;;;;;;;4.16;63.41;94844.63;5027590;28;20021;-76
2022/02/07 05:20:06;;;;;;;13.23;8.15;;;;;;;4.18;63.48;94853.25;5027211;28;20570;-77
2022/02/07 05:22:31;;;;;;;12.90;8.57;;;;;;;4.19;63.08;94847.78;5009558;28;20033;-76
2022/02/07 05:24:58;;;;;;;11.40;7.75;;;;;;;4.26;63.20;94847.16;5027482;28;20060;-77
2022/02/07 05:27:24;;;;;;;14.85;8.93;;;;;;;4.25;63.39;94843.69;5027037;28;20048;-76
2022/02/07 05:29:49;;;;;;;16.50;9.10;;;;;;;4.24;63.22;94841.19;5027751;28;20018;-77
2022/02/07 05:32:16;;;;;;;13.25;8.65;;;;;;;4.21;63.69;94837.00;5009348;28;20516;-77
2022/02/07 05:34:41;;;;;;;17.38;10.07;;;;;;;4.09;63.62;94841.72;5027160;28;20587;-77
2022/02/07 05:37:10;;;;;;;16.17;9.63;;;;;;;4.11;63.20;94849.53;5026905;28;20029;-76
2022/02/07 05:39:36;;;;;;;14.30;9.13;;;;;;;4.17;63.19;94851.59;5009790;28;20462;-77
2022/02/07 05:42:05;;;;;;;12.57;8.30;;;;;;;4.27;62.64;94844.38;5025132;28;20018;-76
2022/02/07 05:44:31;;;;;;;12.45;8.35;;;;;;;4.24;62.58;94844.66;5025600;28;20052;-76
2022/02/07 05:46:56;;;;;;;14.68;8.50;;;;;;;4.18;63.01;94846.13;5025780;28;20056;-80
2022/02/07 05:49:24;;;;;;;13.05;8.63;;;;;;;4.20;63.09;94853.94;5025425;28;20096;-76
2022/02/07 05:51:49;;;;;;;14.18;8.10;;;;;;;4.19;63.41;94854.94;5025235;28;20036;-76
2022/02/07 05:54:15;;;;;;;14.18;8.95;;;;;;;4.21;63.34;94850.28;5008962;28;20416;-76
2022/02/07 05:56:40;;;;;;;14.38;9.20;;;;;;;4.24;62.74;94862.44;5026949;28;20028;-77
2022/02/07 05:59:06;;;;;;;13.70;8.07;;;;;;;4.24;63.08;94857.94;5025522;28;20033;-78
2022/02/07 06:01:31;;;;;;;11.50;8.45;;;;;;;4.27;62.98;94854.16;5009085;28;20032;-75
2022/02/07 06:03:56;;;;;;;15.77;10.55;;;;;;;4.25;62.86;94845.50;5026828;28;20033;-76
2022/02/07 06:06:22;;;;;;;18.13;9.00;;;;;;;4.29;62.22;94853.00;5026280;28;20048;-76
2022/02/07 06:08:47;;;;;;;14.35;9.23;;;;;;;4.30;62.37;94832.63;5008823;28;20510;-78
2022/02/07 06:11:13;;;;;;;16.30;9.30;;;;;;;4.28;62.78;94822.16;5026330;28;20025;-76
2022/02/07 06:13:39;;;;;;;17.48;11.07;;;;;;;4.23;63.39;94823.59;5026343;28;20029;-79
2022/02/07 06:16:05;;;;;;;21.75;12.20;;;;;;;4.16;63.22;94826.03;5026338;28;20037;-77
2022/02/07 06:18:31;;;;;;;18.58;11.45;;;;;;;4.15;62.89;94838.47;5025064;28;20246;-78
2022/02/07 06:21:02;;;;;;;16.63;10.25;;;;;;;4.21;62.69;94844.97;5026305;28;20037;-77
2022/02/07 06:23:28;;;;;;;17.95;10.60;;;;;;;4.28;61.96;94843.41;5024698;28;20034;-77
2022/02/07 06:25:55;;;;;;;16.20;10.82;;;;;;;4.21;62.69;94826.41;5025161;28;20029;-77
2022/02/07 06:28:20;;;;;;;17.90;10.93;;;;;;;4.26;62.50;94817.97;5024643;28;20029;-77
2022/02/07 06:30:46;;;;;;;19.25;11.05;;;;;;;4.33;62.60;94814.56;5026086;28;20712;-76
2022/02/07 06:33:11;;;;;;;17.25;10.52;;;;;;;4.43;62.32;94818.97;5024897;28;20040;-77
2022/02/07 06:35:37;;;;;;;16.73;9.75;;;;;;;4.49;62.65;94812.19;5026058;28;20017;-78
2022/02/07 06:38:02;;;;;;;17.25;9.68;;;;;;;4.57;63.09;94825.53;5024810;28;20033;-79
2022/02/07 06:40:27;;;;;;;15.60;10.70;;;;;;;4.58;62.97;94821.88;5025750;28;20103;-76
2022/02/07 06:42:53;;;;;;;16.13;9.13;;;;;;;4.62;62.06;94825.91;5024893;28;20040;-77
2022/02/07 06:45:19;;;;;;;17.17;9.85;;;;;;;4.63;62.06;94824.06;5025686;28;20029;-80
2022/02/07 06:47:44;;;;;;;25.10;13.82;;;;;;;4.69;62.12;94818.97;5026116;28;20034;-77
2022/02/07 06:50:09;;;;;;;19.73;12.38;;;;;;;4.69;61.89;94818.16;5025116;28;20014;-80
2022/02/07 06:52:35;;;;;;;28.17;14.50;;;;;;;4.75;61.67;94812.22;5026801;28;20037;-78
2022/02/07 06:55:00;;;;;;;20.92;12.73;;;;;;;4.74;62.25;94805.22;5029028;28;20033;-79
2022/02/07 06:57:26;;;;;;;21.35;12.75;;;;;;;4.74;61.67;94791.94;5030101;28;20400;-77
2022/02/07 06:59:51;;;;;;;20.50;12.68;;;;;;;4.91;61.70;94794.69;5028632;28;20017;-80
2022/02/07 07:02:19;;;;;;;25.02;12.95;;;;;;;4.90;61.89;94788.53;5028670;28;20029;-76
2022/02/07 07:04:45;;;;;;;22.08;11.95;;;;;;;5.00;61.76;94788.44;5028835;28;20413;-76
2022/02/07 07:07:10;;;;;;;21.42;12.90;;;;;;;5.41;61.05;94787.78;5030017;28;20116;-79
2022/02/07 07:09:38;;;;;;;19.77;12.82;;;;;;;5.75;60.05;94786.06;5029821;28;20030;-76
2022/02/07 07:12:08;;;;;;;20.10;12.55;;;;;;;5.84;59.58;94775.41;5028763;28;20175;-76
2022/02/07 07:14:43;;;;;;;18.02;12.93;;;;;;;5.91;59.40;94755.13;5029479;28;20140;-76
2022/02/07 07:17:09;;;;;;;20.17;13.05;;;;;;;5.99;58.74;94763.13;5029818;28;20442;-77
2022/02/07 07:19:35;;;;;;;20.63;12.20;;;;;;;6.29;58.32;94760.84;5028004;28;20464;-76
2022/02/07 07:22:00;;;;;;;24.02;12.23;;;;;;;6.52;57.41;94761.97;5028573;28;20091;-76
2022/02/07 07:24:26;;;;;;;17.25;11.45;;;;;;;6.75;56.70;94756.78;5029598;28;20021;-77
2022/02/07 07:26:52;;;;;;;18.05;12.43;;;;;;;6.88;56.79;94748.25;5028806;28;20490;-76
2022/02/07 07:29:22;;;;;;;16.52;10.65;;;;;;;6.67;57.16;94748.81;5028663;28;20021;-76
2022/02/07 07:31:52;;;;;;;16.75;11.30;;;;;;;6.80;57.71;94751.75;5029497;28;20034;-77
2022/02/07 07:34:18;;;;;;;19.88;11.00;;;;;;;6.96;56.87;94739.41;5029362;28;20033;-78
2022/02/07 07:36:44;;;;;;;19.48;12.55;;;;;;;6.86;56.87;94728.94;5029285;28;20021;-76
2022/02/07 07:39:12;;;;;;;17.55;11.15;;;;;;;6.78;57.66;94720.97;5028378;28;20098;-78
2022/02/07 07:41:38;;;;;;;17.08;11.68;;;;;;;6.77;57.64;94717.47;5027822;28;20037;-78
2022/02/07 07:44:04;;;;;;;15.60;10.82;;;;;;;6.79;58.11;94720.78;5027882;28;20034;-78
2022/02/07 07:46:31;;;;;;;20.20;11.77;;;;;;;6.82;57.58;94716.13;5028271;28;20026;-78
2022/02/07 07:49:29;;;;;;;16.77;9.80;;;;;;;6.87;58.08;94717.25;5028897;28;20029;-75
2022/02/07 07:51:52;;;;;;;17.35;12.32;;;;;;;6.96;57.95;94715.41;5027376;28;20128;-79
2022/02/07 08:02:19;;;;;;;23.42;12.20;;;;;;;7.10;57.56;94702.34;5029133;28;20083;-76
2022/02/07 08:04:46;;;;;;;18.15;11.80;;;;;;;7.16;56.84;94706.97;5026767;28;20029;-76
2022/02/07 08:07:18;;;;;;;21.23;13.35;;;;;;;7.11;57.05;94715.50;5027429;28;20033;-77
2022/02/07 08:12:28;;;;;;;33.95;20.40;;;;;;;6.70;58.17;94712.97;5027744;28;20050;-77
2022/02/07 08:14:53;;;;;;;34.95;21.67;;;;;;;6.72;58.07;94687.84;5027196;28;20053;-76
2022/02/07 08:17:21;;;;;;;33.72;20.20;;;;;;;6.79;57.23;94675.47;5027428;28;20084;-77
2022/02/07 08:19:48;;;;;;;34.17;20.10;;;;;;;6.58;57.40;94656.56;5028465;28;20025;-76
2022/02/07 08:22:13;;;;;;;35.00;21.00;;;;;;;6.24;58.72;94645.97;5010814;28;20083;-80
2022/02/07 08:24:40;;;;;;;34.88;19.05;;;;;;;6.43;58.37;94647.44;5027220;28;20022;-78
2022/02/07 08:27:05;;;;;;;34.33;19.58;;;;;;;6.46;58.01;94645.44;5028331;28;20038;-76
2022/02/07 08:29:31;;;;;;;34.65;20.45;;;;;;;6.43;58.14;94650.09;5027454;28;20041;-75
2022/02/07 08:31:56;;;;;;;30.98;21.77;;;;;;;6.29;58.27;94654.31;5028991;28;20021;-76
2022/02/07 08:34:22;;;;;;;39.42;23.48;;;;;;;6.36;58.35;94651.78;5028184;28;20399;-81
2022/02/07 08:36:47;;;;;;;34.00;22.33;;;;;;;6.42;57.88;94623.63;5012756;28;20494;-78
2022/02/07 08:39:12;;;;;;;44.88;23.73;;;;;;;6.60;57.92;94620.75;5030429;28;20032;-77
2022/02/07 08:41:38;;;;;;;37.13;24.38;;;;;;;6.67;57.55;94618.25;5026865;28;20029;-80
2022/02/07 08:44:04;;;;;;;41.50;25.63;;;;;;;6.68;57.29;94622.56;5026823;28;20472;-76
2022/02/07 08:46:29;;;;;;;45.50;26.17;;;;;;;6.68;57.23;94628.72;5010242;28;20416;-75
2022/02/07 08:48:54;;;;;;;42.05;24.45;;;;;;;6.67;57.80;94631.56;5026460;28;20095;-78
2022/02/07 08:51:20;;;;;;;41.33;24.42;;;;;;;6.66;57.71;94633.38;5028624;28;20022;-76
2022/02/07 08:53:47;;;;;;;37.58;22.17;;;;;;;6.78;57.98;94598.34;5027963;28;20503;-76
2022/02/07 08:56:13;;;;;;;34.72;20.40;;;;;;;6.93;57.49;94606.47;5027660;28;20022;-76
2022/02/07 08:58:42;;;;;;;35.58;20.85;;;;;;;6.82;57.56;94604.19;5027829;28;20025;-77
2022/02/07 09:01:17;;;;;;;33.80;21.15;;;;;;;6.80;58.11;94615.81;5026445;28;20503;-77
2022/02/07 09:04:07;;;;;;;33.42;20.02;;;;;;;6.65;58.51;94620.22;5027716;28;20034;-76
2022/02/07 09:06:55;;;;;;;30.02;18.35;;;;;;;6.73;58.06;94614.88;5027621;28;20083;-77
2022/02/07 09:09:21;;;;;;;33.00;19.23;;;;;;;6.87;57.84;94612.47;5027721;28;20018;-78
2022/02/07 09:11:47;;;;;;;26.42;18.63;;;;;;;6.98;57.90;94606.75;5027538;28;20040;-78
2022/02/07 09:14:19;;;;;;;34.13;18.95;;;;;;;7.09;57.69;94610.88;5025836;28;20133;-78
2022/02/07 09:16:45;;;;;;;30.38;18.02;;;;;;;7.24;57.25;94602.94;5025403;28;20032;-77
2022/02/07 09:19:10;;;;;;;30.00;17.17;;;;;;;7.34;57.10;94610.72;5027336;28;20026;-80
2022/02/07 09:21:36;;;;;;;24.75;15.77;;;;;;;7.36;56.98;94607.84;5027730;28;20021;-80
2022/02/07 09:24:02;;;;;;;22.20;14.45;;;;;;;7.44;56.77;94602.47;5027197;28;20032;-78
2022/02/07 09:26:27;;;;;;;22.90;14.40;;;;;;;7.47;56.79;94598.59;5027356;28;20048;-77
2022/02/07 09:28:53;;;;;;;22.48;13.57;;;;;;;7.64;56.13;94596.66;5026113;28;20231;-78
2022/02/07 09:31:18;;;;;;;22.75;13.15;;;;;;;7.75;55.58;94588.22;5025828;28;20423;-77
2022/02/07 09:33:44;;;;;;;22.13;13.88;;;;;;;7.69;55.84;94578.25;5027143;28;20268;-78
2022/02/07 09:36:11;;;;;;;21.08;13.07;;;;;;;7.73;55.55;94579.56;5025876;28;20056;-79
2022/02/07 09:38:36;;;;;;;26.42;13.02;;;;;;;7.77;55.81;94582.72;5025939;28;20104;-77
2022/02/07 09:41:02;;;;;;;22.73;13.45;;;;;;;7.83;55.58;94584.66;5009439;28;20041;-77
2022/02/07 09:43:33;;;;;;;31.08;13.43;;;;;;;7.83;55.64;94578.47;5025628;28;20455;-77
2022/02/07 09:46:09;;;;;;;24.23;13.63;;;;;;;7.97;54.84;94568.81;5026073;28;20108;-77
2022/02/07 09:48:40;;;;;;;28.25;13.05;;;;;;;7.99;54.68;94551.63;5025916;28;20029;-78
2022/02/07 09:51:06;;;;;;;20.70;12.98;;;;;;;8.09;54.76;94547.84;5025533;28;20033;-77
2022/02/07 09:53:33;;;;;;;18.45;12.23;;;;;;;8.09;54.90;94535.34;5025398;28;20053;-75
2022/02/07 09:55:59;;;;;;;24.80;14.30;;;;;;;8.16;54.22;94530.06;5009456;28;20430;-77
2022/02/07 09:58:24;;;;;;;24.83;14.75;;;;;;;8.22;54.52;94529.31;5025059;28;20468;-77
2022/02/07 10:00:50;;;;;;;23.33;14.93;;;;;;;8.32;54.28;94517.56;5025386;28;20482;-76
2022/02/07 10:03:24;;;;;;;27.25;15.40;;;;;;;8.40;54.38;94520.09;5025353;28;20017;-77
2022/02/07 10:05:55;;;;;;;22.50;15.10;;;;;;;8.33;54.36;94521.88;5025473;28;20029;-74
2022/02/07 10:11:09;;;;;;;25.20;14.27;;;;;;;8.29;54.17;94508.88;5025282;28;20046;-76
2022/02/07 10:14:04;;;;;;;25.80;14.60;;;;;;;8.22;54.38;94497.25;5026540;28;20029;-77
2022/02/07 10:19:22;;;;;;;24.85;13.88;;;;;;;8.28;53.59;94496.56;5025175;28;20037;-77
2022/02/07 10:38:08;;;;;;;22.42;14.93;;;;;;;8.11;54.95;94452.34;5024825;28;20037;-78
2022/02/07 10:41:06;;;;;;;22.75;14.02;;;;;;;8.22;54.71;94438.50;5026237;28;20107;-77
2022/02/07 10:48:33;;;;;;;22.52;13.90;;;;;;;8.11;54.71;94421.13;5024580;28;20037;-76
2022/02/07 10:51:12;;;;;;;25.23;14.95;;;;;;;8.08;55.08;94401.97;5026288;28;20029;-75
2022/02/07 10:53:43;;;;;;;26.83;14.73;;;;;;;8.07;55.32;94408.31;5025988;28;20040;-78
2022/02/07 10:56:08;;;;;;;23.00;14.65;;;;;;;7.92;55.20;94379.81;5008892;28;20049;-75
2022/02/07 10:58:34;;;;;;;18.45;12.88;;;;;;;7.71;54.39;94377.88;5026060;28;20429;-78
2022/02/07 11:03:41;;;;;;;19.73;10.18;;;;;;;7.79;53.66;94391.97;5024793;28;20033;-77
2022/02/07 11:06:09;;;;;;;19.10;11.40;;;;;;;7.81;53.85;94372.25;5024745;28;20025;-75
2022/02/07 11:09:08;;;;;;;12.88;7.30;;;;;;;7.84;52.80;94364.72;5024219;28;20040;-76
2022/02/07 11:19:35;;;;;;;8.25;3.85;;;;;;;8.52;49.75;94358.28;5025787;28;20026;-77
2022/02/07 11:28:00;;;;;;;9.27;3.53;;;;;;;8.85;49.02;94308.81;5024315;28;20034;-78
2022/02/07 11:30:34;;;;;;;5.75;2.88;;;;;;;8.89;49.13;94294.06;5024326;28;20112;-77
2022/02/07 11:33:00;;;;;;;9.80;3.38;;;;;;;8.94;49.20;94279.25;5025628;28;20033;-77
2022/02/07 11:35:30;;;;;;;6.97;3.42;;;;;;;8.97;49.14;94303.75;5008256;28;20026;-77
2022/02/07 11:38:02;;;;;;;5.55;3.10;;;;;;;9.00;49.50;94278.47;5024146;28;20038;-77
2022/02/07 11:40:31;;;;;;;5.00;2.90;;;;;;;9.02;48.97;94282.63;5029303;28;20033;-76
2022/02/07 11:43:20;;;;;;;4.40;3.20;;;;;;;9.10;49.00;94275.44;5027924;28;20017;-75
2022/02/07 11:46:08;;;;;;;6.93;3.38;;;;;;;9.10;48.64;94278.97;5025037;28;20492;-80
2022/02/07 11:48:33;;;;;;;5.00;3.40;;;;;;;9.13;49.05;94269.72;5028001;28;20420;-77
2022/02/07 11:51:28;;;;;;;8.23;3.05;;;;;;;8.99;48.54;94272.31;5028877;28;20500;-77
2022/02/07 11:53:59;;;;;;;6.65;3.45;;;;;;;9.00;48.83;94267.78;5028620;28;20075;-77
2022/02/07 11:59:07;;;;;;;5.03;3.08;;;;;;;9.15;48.43;94256.97;5028936;28;20533;-78
2022/02/07 12:01:53;;;;;;;9.88;3.30;;;;;;;9.15;48.17;94268.50;5029210;28;20022;-77
2022/02/07 12:04:27;;;;;;;10.38;4.03;;;;;;;9.21;48.45;94277.56;5027626;28;20025;-77
2022/02/07 12:07:10;;;;;;;8.57;3.63;;;;;;;9.21;48.43;94280.25;5029015;28;20163;-76
2022/02/07 12:09:36;;;;;;;5.60;3.55;;;;;;;9.22;48.64;94284.56;5028553;28;20033;-78
2022/02/07 12:12:02;;;;;;;7.15;3.75;;;;;;;9.13;48.39;94275.06;5030058;28;20401;-80
2022/02/07 12:14:32;;;;;;;4.93;3.42;;;;;;;9.20;48.23;94267.91;5028995;28;20045;-78
2022/02/07 12:16:58;;;;;;;8.93;3.80;;;;;;;9.23;48.51;94272.03;5028396;28;20026;-79
2022/02/07 12:19:39;;;;;;;6.18;3.65;;;;;;;9.27;48.23;94270.59;5027213;28;20039;-76
2022/02/07 12:22:18;;;;;;;7.93;4.40;;;;;;;9.24;47.65;94271.84;5028237;28;20158;-79
2022/02/07 12:24:48;;;;;;;8.18;3.88;;;;;;;9.27;47.90;94266.09;5027610;28;20048;-77
2022/02/07 12:27:15;;;;;;;6.80;3.60;;;;;;;9.30;47.90;94262.19;5027215;28;20040;-78
2022/02/07 12:29:59;;;;;;;6.97;4.53;;;;;;;9.29;47.77;94263.22;5027377;28;20025;-78
2022/02/07 12:32:26;;;;;;;8.63;3.80;;;;;;;9.19;48.38;94266.25;5027282;28;20113;-77
2022/02/07 12:34:51;;;;;;;8.23;3.22;;;;;;;9.24;47.94;94258.44;5010460;28;20021;-78
2022/02/07 12:37:17;;;;;;;5.40;3.25;;;;;;;9.27;47.68;94263.41;4994437;28;20021;-77
2022/02/07 12:39:42;;;;;;;8.68;3.92;;;;;;;9.32;47.50;94253.97;5010139;28;20025;-80
2022/02/07 12:42:08;;;;;;;5.82;3.65;;;;;;;9.33;47.31;94260.97;5026684;28;20087;-76
2022/02/07 12:44:33;;;;;;;9.10;3.85;;;;;;;9.36;47.50;94249.88;5010587;28;20033;-77
2022/02/07 12:46:59;;;;;;;7.25;3.83;;;;;;;9.34;47.02;94251.91;5010169;28;20029;-77
2022/02/07 12:49:25;;;;;;;7.00;4.43;;;;;;;9.27;48.04;94252.69;5026695;28;20037;-77
2022/02/07 12:51:51;;;;;;;10.77;5.05;;;;;;;9.31;48.22;94252.31;5027964;28;20029;-77
2022/02/07 12:54:18;;;;;;;10.52;5.00;;;;;;;9.33;48.26;94242.25;5026358;28;20028;-78
2022/02/07 12:56:43;;;;;;;13.57;6.25;;;;;;;9.35;48.47;94248.22;5010115;28;20112;-79
2022/02/07 12:59:09;;;;;;;13.10;5.00;;;;;;;9.38;48.24;94247.81;5026552;28;20109;-79
2022/02/07 13:01:42;;;;;;;12.82;5.75;;;;;;;9.35;48.16;94253.56;4993751;28;20021;-77
2022/02/07 13:04:14;;;;;;;14.75;5.88;;;;;;;9.36;47.88;94256.06;5027613;28;20036;-77
2022/02/07 13:06:43;;;;;;;16.75;6.72;;;;;;;9.38;47.71;94256.66;5027965;28;20523;-81
2022/02/07 13:09:16;;;;;;;11.82;5.53;;;;;;;9.32;47.99;94240.59;5026279;28;20029;-80
2022/02/07 13:11:48;;;;;;;13.15;5.43;;;;;;;9.39;47.51;94244.13;5027633;28;20281;-79
2022/02/07 13:14:17;;;;;;;9.10;4.45;;;;;;;9.38;47.99;94242.47;5010381;28;20118;-80
2022/02/07 13:16:44;;;;;;;12.80;6.07;;;;;;;9.36;47.88;94244.50;5026353;28;20033;-77
2022/02/07 13:19:13;;;;;;;8.93;4.72;;;;;;;9.24;48.47;94250.44;5009585;28;20048;-78
2022/02/07 13:21:42;;;;;;;8.60;4.78;;;;;;;9.33;48.63;94239.56;5027333;28;20021;-77
2022/02/07 13:24:14;;;;;;;7.65;4.05;;;;;;;9.35;48.05;94232.19;5025843;28;20025;-77
2022/02/07 13:26:44;;;;;;;14.40;5.43;;;;;;;9.34;48.41;94230.50;5010557;28;20029;-82
2022/02/07 13:29:15;;;;;;;8.63;4.38;;;;;;;9.37;48.45;94225.59;5009435;28;20416;-76
2022/02/07 13:31:40;;;;;;;7.80;3.80;;;;;;;9.27;48.95;94233.13;5009649;28;20504;-77
2022/02/07 13:34:22;;;;;;;6.97;4.00;;;;;;;9.23;49.39;94229.22;5025912;28;20026;-78
2022/02/07 13:36:50;;;;;;;6.13;3.65;;;;;;;9.23;49.17;94232.72;5026252;28;20025;-77
2022/02/07 13:39:19;;;;;;;5.10;3.60;;;;;;;9.14;49.65;94229.38;5025777;28;20519;-77
2022/02/07 13:42:08;;;;;;;5.70;4.47;;;;;;;9.09;49.71;94223.78;5025907;28;20034;-77
2022/02/07 13:44:41;;;;;;;11.00;4.28;;;;;;;9.09;50.07;94217.63;5025767;28;20034;-79
2022/02/07 13:47:08;;;;;;;10.60;3.97;;;;;;;9.09;50.39;94207.75;5026999;28;20578;-76
2022/02/07 13:49:51;;;;;;;12.30;4.60;;;;;;;9.06;50.37;94213.50;5009314;28;20033;-78
2022/02/07 13:52:17;;;;;;;10.52;4.28;;;;;;;9.09;50.12;94212.28;5009681;28;20068;-77
2022/02/07 13:54:43;;;;;;;14.93;4.60;;;;;;;9.12;50.18;94201.19;5025775;28;20045;-81
2022/02/07 13:57:08;;;;;;;8.13;4.03;;;;;;;9.10;50.57;94206.75;5025529;28;20033;-78
2022/02/07 13:59:35;;;;;;;8.23;3.63;;;;;;;9.11;50.31;94199.53;5008578;28;20427;-77